sensor_id;sensor_type;location;lat;lon;timestamp;noise_LAeq;noise_LA_min;noise_LA_max;noise_LA01;noise_LA95
66458;Laerm;56835;52.198;4.826;2023-03-15T00:00:08;55.45;52.75;57.42;;
66458;Laerm;56835;52.198;4.826;2023-03-15T00:00:21;55.46;53.82;57.05;;
66458;Laerm;56835;52.198;4.826;2023-03-15T00:00:32;55.49;53.37;56.98;;
66458;Laerm;56835;52.198;4.826;2023-03-15T00:00:43;55.42;53.20;56.70;;
66458;Laerm;56835;52.198;4.826;2023-03-15T00:00:54;55.48;53.11;57.03;;
66458;Laerm;56835;52.198;4.826;2023-03-15T00:01:18;55.46;53.69;56.94;;
66458;Laerm;56835;52.198;4.826;2023-03-15T00:01:28;55.46;53.65;57.01;;
66458;Laerm;56835;52.198;4.826;2023-03-15T00:01:39;55.45;52.97;57.21;;
66458;Laerm;56835;52.198;4.826;2023-03-15T00:01:49;55.44;53.53;56.89;;
66458;Laerm;56835;52.198;4.826;2023-03-15T00:01:59;55.49;53.12;57.35;;
66458;Laerm;56835;52.198;4.826;2023-03-15T00:02:10;55.43;53.53;57.13;;
66458;Laerm;56835;52.198;4.826;2023-03-15T00:02:20;55.44;53.23;57.23;;
66458;Laerm;56835;52.198;4.826;2023-03-15T00:02:31;55.46;53.26;57.28;;
66458;Laerm;56835;52.198;4.826;2023-03-15T00:02:41;55.50;53.64;56.93;;
66458;Laerm;56835;52.198;4.826;2023-03-15T00:02:51;55.48;53.68;57.06;;
66458;Laerm;56835;52.198;4.826;2023-03-15T00:03:02;55.47;53.70;57.17;;
66458;Laerm;56835;52.198;4.826;2023-03-15T00:03:13;55.48;53.47;57.06;;
66458;Laerm;56835;52.198;4.826;2023-03-15T00:03:23;55.43;53.38;56.92;;
66458;Laerm;56835;52.198;4.826;2023-03-15T00:03:34;55.45;53.36;56.92;;
66458;Laerm;56835;52.198;4.826;2023-03-15T00:03:48;55.52;53.25;57.13;;
66458;Laerm;56835;52.198;4.826;2023-03-15T00:03:59;55.55;53.15;56.88;;
66458;Laerm;56835;52.198;4.826;2023-03-15T00:04:09;55.49;53.50;57.17;;
66458;Laerm;56835;52.198;4.826;2023-03-15T00:04:20;55.52;52.96;57.02;;
66458;Laerm;56835;52.198;4.826;2023-03-15T00:04:31;55.58;53.91;57.24;;
66458;Laerm;56835;52.198;4.826;2023-03-15T00:04:44;55.45;53.36;57.00;;
66458;Laerm;56835;52.198;4.826;2023-03-15T00:04:54;55.45;53.60;56.82;;
66458;Laerm;56835;52.198;4.826;2023-03-15T00:05:05;55.42;53.30;56.92;;
66458;Laerm;56835;52.198;4.826;2023-03-15T00:05:15;55.48;53.61;56.99;;
66458;Laerm;56835;52.198;4.826;2023-03-15T00:05:25;55.49;53.43;57.18;;
66458;Laerm;56835;52.198;4.826;2023-03-15T00:05:36;55.46;53.72;56.92;;
66458;Laerm;56835;52.198;4.826;2023-03-15T00:05:47;55.41;53.21;57.15;;
66458;Laerm;56835;52.198;4.826;2023-03-15T00:05:57;55.49;53.64;56.80;;
66458;Laerm;56835;52.198;4.826;2023-03-15T00:06:10;55.49;53.03;56.81;;
66458;Laerm;56835;52.198;4.826;2023-03-15T00:06:21;55.46;53.72;56.77;;
66458;Laerm;56835;52.198;4.826;2023-03-15T00:06:31;55.50;53.73;57.03;;
66458;Laerm;56835;52.198;4.826;2023-03-15T00:06:44;55.49;53.58;56.95;;
66458;Laerm;56835;52.198;4.826;2023-03-15T00:06:55;55.49;53.43;57.03;;
66458;Laerm;56835;52.198;4.826;2023-03-15T00:07:05;55.53;53.44;57.03;;
66458;Laerm;56835;52.198;4.826;2023-03-15T00:07:15;55.46;52.94;56.99;;
66458;Laerm;56835;52.198;4.826;2023-03-15T00:07:25;55.45;53.38;56.96;;
66458;Laerm;56835;52.198;4.826;2023-03-15T00:07:36;55.44;53.48;57.20;;
66458;Laerm;56835;52.198;4.826;2023-03-15T00:07:46;55.55;53.60;56.90;;
66458;Laerm;56835;52.198;4.826;2023-03-15T00:07:57;55.51;53.34;57.24;;
66458;Laerm;56835;52.198;4.826;2023-03-15T00:08:07;55.47;53.30;56.68;;
66458;Laerm;56835;52.198;4.826;2023-03-15T00:08:18;55.54;53.69;56.98;;
66458;Laerm;56835;52.198;4.826;2023-03-15T00:08:29;55.44;53.25;56.98;;
66458;Laerm;56835;52.198;4.826;2023-03-15T00:08:42;55.46;53.48;57.26;;
66458;Laerm;56835;52.198;4.826;2023-03-15T00:08:56;55.40;53.34;56.91;;
66458;Laerm;56835;52.198;4.826;2023-03-15T00:09:06;55.44;53.52;57.04;;
66458;Laerm;56835;52.198;4.826;2023-03-15T00:09:17;55.48;52.82;56.85;;
66458;Laerm;56835;52.198;4.826;2023-03-15T00:09:27;55.48;53.55;56.94;;
66458;Laerm;56835;52.198;4.826;2023-03-15T00:09:37;55.53;53.93;57.08;;
66458;Laerm;56835;52.198;4.826;2023-03-15T00:09:47;55.41;53.57;56.91;;
66458;Laerm;56835;52.198;4.826;2023-03-15T00:09:58;55.51;53.51;56.77;;
66458;Laerm;56835;52.198;4.826;2023-03-15T00:10:08;55.42;53.43;56.84;;
66458;Laerm;56835;52.198;4.826;2023-03-15T00:10:19;55.48;53.60;57.23;;
66458;Laerm;56835;52.198;4.826;2023-03-15T00:10:29;55.46;52.57;56.67;;
66458;Laerm;56835;52.198;4.826;2023-03-15T00:10:43;55.42;53.67;57.16;;
66458;Laerm;56835;52.198;4.826;2023-03-15T00:10:53;55.49;53.64;57.11;;
66458;Laerm;56835;52.198;4.826;2023-03-15T00:11:04;55.57;53.41;57.30;;
66458;Laerm;56835;52.198;4.826;2023-03-15T00:11:15;55.43;53.31;56.79;;
66458;Laerm;56835;52.198;4.826;2023-03-15T00:11:25;55.51;53.41;56.83;;
66458;Laerm;56835;52.198;4.826;2023-03-15T00:11:36;55.47;52.96;57.14;;
66458;Laerm;56835;52.198;4.826;2023-03-15T00:11:46;55.42;53.36;56.74;;
66458;Laerm;56835;52.198;4.826;2023-03-15T00:11:57;55.45;53.73;56.86;;
66458;Laerm;56835;52.198;4.826;2023-03-15T00:12:08;55.46;52.54;56.93;;
66458;Laerm;56835;52.198;4.826;2023-03-15T00:12:18;55.42;53.57;56.91;;
66458;Laerm;56835;52.198;4.826;2023-03-15T00:12:28;55.48;53.34;57.20;;
66458;Laerm;56835;52.198;4.826;2023-03-15T00:12:39;55.52;53.72;56.94;;
66458;Laerm;56835;52.198;4.826;2023-03-15T00:12:51;55.59;53.31;57.14;;
66458;Laerm;56835;52.198;4.826;2023-03-15T00:13:01;55.56;53.75;57.17;;
66458;Laerm;56835;52.198;4.826;2023-03-15T00:13:12;55.49;53.43;57.11;;
66458;Laerm;56835;52.198;4.826;2023-03-15T00:13:23;55.47;53.60;56.97;;
66458;Laerm;56835;52.198;4.826;2023-03-15T00:13:33;55.44;53.63;56.68;;
66458;Laerm;56835;52.198;4.826;2023-03-15T00:13:44;55.50;53.68;56.95;;
66458;Laerm;56835;52.198;4.826;2023-03-15T00:13:55;55.43;52.74;56.84;;
66458;Laerm;56835;52.198;4.826;2023-03-15T00:14:05;55.48;53.88;56.81;;
66458;Laerm;56835;52.198;4.826;2023-03-15T00:14:16;55.47;53.70;56.79;;
66458;Laerm;56835;52.198;4.826;2023-03-15T00:14:27;55.46;53.59;56.95;;
66458;Laerm;56835;52.198;4.826;2023-03-15T00:14:37;55.44;53.22;57.11;;
66458;Laerm;56835;52.198;4.826;2023-03-15T00:14:48;55.47;53.44;56.80;;
66458;Laerm;56835;52.198;4.826;2023-03-15T00:14:58;55.46;53.16;56.93;;
66458;Laerm;56835;52.198;4.826;2023-03-15T00:15:09;55.47;53.40;57.11;;
66458;Laerm;56835;52.198;4.826;2023-03-15T00:15:22;55.45;52.93;56.72;;
66458;Laerm;56835;52.198;4.826;2023-03-15T00:15:32;55.53;53.51;57.23;;
66458;Laerm;56835;52.198;4.826;2023-03-15T00:15:46;55.54;53.80;57.07;;
66458;Laerm;56835;52.198;4.826;2023-03-15T00:15:58;55.54;53.43;56.85;;
66458;Laerm;56835;52.198;4.826;2023-03-15T00:16:08;55.47;53.29;56.77;;
66458;Laerm;56835;52.198;4.826;2023-03-15T00:16:19;55.44;52.79;57.28;;
66458;Laerm;56835;52.198;4.826;2023-03-15T00:16:29;55.46;53.98;57.31;;
66458;Laerm;56835;52.198;4.826;2023-03-15T00:16:41;55.46;53.44;56.83;;
66458;Laerm;56835;52.198;4.826;2023-03-15T00:16:52;55.44;53.84;57.00;;
66458;Laerm;56835;52.198;4.826;2023-03-15T00:17:03;55.46;53.11;56.81;;
66458;Laerm;56835;52.198;4.826;2023-03-15T00:17:14;55.44;53.48;56.68;;
66458;Laerm;56835;52.198;4.826;2023-03-15T00:17:24;55.44;53.37;56.65;;
66458;Laerm;56835;52.198;4.826;2023-03-15T00:17:34;55.50;53.34;57.40;;
66458;Laerm;56835;52.198;4.826;2023-03-15T00:17:44;55.44;53.23;57.13;;
66458;Laerm;56835;52.198;4.826;2023-03-15T00:17:55;55.45;53.49;56.99;;
66458;Laerm;56835;52.198;4.826;2023-03-15T00:18:05;55.44;53.68;56.80;;
66458;Laerm;56835;52.198;4.826;2023-03-15T00:18:16;55.46;53.70;56.80;;
66458;Laerm;56835;52.198;4.826;2023-03-15T00:18:27;55.42;53.77;57.41;;
66458;Laerm;56835;52.198;4.826;2023-03-15T00:18:37;55.41;53.43;56.53;;
66458;Laerm;56835;52.198;4.826;2023-03-15T00:18:47;55.44;53.28;56.94;;
66458;Laerm;56835;52.198;4.826;2023-03-15T00:18:58;55.45;52.86;57.07;;
66458;Laerm;56835;52.198;4.826;2023-03-15T00:19:08;55.48;53.64;56.81;;
66458;Laerm;56835;52.198;4.826;2023-03-15T00:19:19;55.42;53.33;56.86;;
66458;Laerm;56835;52.198;4.826;2023-03-15T00:19:30;55.51;53.71;57.36;;
66458;Laerm;56835;52.198;4.826;2023-03-15T00:19:40;55.49;53.41;56.80;;
66458;Laerm;56835;52.198;4.826;2023-03-15T00:19:50;55.43;53.38;56.81;;
66458;Laerm;56835;52.198;4.826;2023-03-15T00:20:00;55.44;53.65;57.06;;
66458;Laerm;56835;52.198;4.826;2023-03-15T00:20:11;55.44;52.84;56.97;;
66458;Laerm;56835;52.198;4.826;2023-03-15T00:20:23;55.42;53.34;57.08;;
66458;Laerm;56835;52.198;4.826;2023-03-15T00:20:35;55.44;53.03;56.87;;
66458;Laerm;56835;52.198;4.826;2023-03-15T00:20:45;55.42;53.40;57.40;;
66458;Laerm;56835;52.198;4.826;2023-03-15T00:20:56;55.43;53.38;56.85;;
66458;Laerm;56835;52.198;4.826;2023-03-15T00:21:06;55.41;53.24;56.76;;
66458;Laerm;56835;52.198;4.826;2023-03-15T00:21:17;55.37;53.72;56.63;;
66458;Laerm;56835;52.198;4.826;2023-03-15T00:21:27;55.50;53.34;56.88;;
66458;Laerm;56835;52.198;4.826;2023-03-15T00:21:39;55.60;54.06;57.10;;
66458;Laerm;56835;52.198;4.826;2023-03-15T00:21:52;55.53;53.60;57.19;;
66458;Laerm;56835;52.198;4.826;2023-03-15T00:22:02;55.50;53.33;56.70;;
66458;Laerm;56835;52.198;4.826;2023-03-15T00:22:12;55.59;53.25;56.93;;
66458;Laerm;56835;52.198;4.826;2023-03-15T00:22:22;55.41;53.56;56.83;;
66458;Laerm;56835;52.198;4.826;2023-03-15T00:22:33;55.41;53.30;57.03;;
66458;Laerm;56835;52.198;4.826;2023-03-15T00:22:43;55.44;53.70;57.35;;
66458;Laerm;56835;52.198;4.826;2023-03-15T00:22:53;55.42;53.45;57.03;;
66458;Laerm;56835;52.198;4.826;2023-03-15T00:23:04;55.34;53.00;56.77;;
66458;Laerm;56835;52.198;4.826;2023-03-15T00:23:15;55.41;53.10;56.94;;
66458;Laerm;56835;52.198;4.826;2023-03-15T00:23:25;55.32;53.39;56.92;;
66458;Laerm;56835;52.198;4.826;2023-03-15T00:23:35;55.41;53.02;56.72;;
66458;Laerm;56835;52.198;4.826;2023-03-15T00:23:46;55.33;53.44;56.84;;
66458;Laerm;56835;52.198;4.826;2023-03-15T00:23:56;55.40;53.62;57.26;;
66458;Laerm;56835;52.198;4.826;2023-03-15T00:24:06;55.39;53.48;56.95;;
66458;Laerm;56835;52.198;4.826;2023-03-15T00:24:16;55.35;53.41;56.63;;
66458;Laerm;56835;52.198;4.826;2023-03-15T00:24:27;55.37;53.20;56.75;;
66458;Laerm;56835;52.198;4.826;2023-03-15T00:24:37;55.36;53.03;56.84;;
66458;Laerm;56835;52.198;4.826;2023-03-15T00:24:47;55.34;53.00;56.87;;
66458;Laerm;56835;52.198;4.826;2023-03-15T00:24:57;55.33;53.24;56.88;;
66458;Laerm;56835;52.198;4.826;2023-03-15T00:25:08;55.31;52.89;56.76;;
66458;Laerm;56835;52.198;4.826;2023-03-15T00:25:18;55.40;53.36;57.16;;
66458;Laerm;56835;52.198;4.826;2023-03-15T00:25:28;55.36;53.20;56.84;;
66458;Laerm;56835;52.198;4.826;2023-03-15T00:25:39;55.41;53.22;57.05;;
66458;Laerm;56835;52.198;4.826;2023-03-15T00:25:50;55.34;53.14;57.19;;
66458;Laerm;56835;52.198;4.826;2023-03-15T00:26:01;55.30;53.72;56.81;;
66458;Laerm;56835;52.198;4.826;2023-03-15T00:26:11;55.30;53.23;57.11;;
66458;Laerm;56835;52.198;4.826;2023-03-15T00:26:22;55.35;53.25;56.76;;
66458;Laerm;56835;52.198;4.826;2023-03-15T00:26:32;55.34;53.59;56.90;;
66458;Laerm;56835;52.198;4.826;2023-03-15T00:26:42;55.34;53.35;56.85;;
66458;Laerm;56835;52.198;4.826;2023-03-15T00:26:52;55.29;53.37;57.01;;
66458;Laerm;56835;52.198;4.826;2023-03-15T00:27:03;55.37;53.53;56.73;;
66458;Laerm;56835;52.198;4.826;2023-03-15T00:27:14;55.33;53.31;56.94;;
66458;Laerm;56835;52.198;4.826;2023-03-15T00:27:25;55.34;53.29;56.85;;
66458;Laerm;56835;52.198;4.826;2023-03-15T00:27:35;55.32;53.61;56.73;;
66458;Laerm;56835;52.198;4.826;2023-03-15T00:27:45;55.29;53.16;56.71;;
66458;Laerm;56835;52.198;4.826;2023-03-15T00:27:55;55.32;53.21;56.62;;
66458;Laerm;56835;52.198;4.826;2023-03-15T00:28:06;55.23;53.42;56.69;;
66458;Laerm;56835;52.198;4.826;2023-03-15T00:28:16;55.34;53.18;56.69;;
66458;Laerm;56835;52.198;4.826;2023-03-15T00:28:26;55.25;53.21;56.71;;
66458;Laerm;56835;52.198;4.826;2023-03-15T00:28:37;55.38;53.59;57.10;;
66458;Laerm;56835;52.198;4.826;2023-03-15T00:28:47;55.22;53.02;56.91;;
66458;Laerm;56835;52.198;4.826;2023-03-15T00:28:57;55.25;53.36;56.71;;
66458;Laerm;56835;52.198;4.826;2023-03-15T00:29:08;55.30;53.41;56.63;;
66458;Laerm;56835;52.198;4.826;2023-03-15T00:29:18;55.27;53.32;56.85;;
66458;Laerm;56835;52.198;4.826;2023-03-15T00:29:28;55.28;53.31;56.86;;
66458;Laerm;56835;52.198;4.826;2023-03-15T00:29:39;55.28;53.30;56.79;;
66458;Laerm;56835;52.198;4.826;2023-03-15T00:29:49;55.29;53.70;56.60;;
66458;Laerm;56835;52.198;4.826;2023-03-15T00:29:59;55.26;53.05;56.64;;
66458;Laerm;56835;52.198;4.826;2023-03-15T00:30:10;55.30;53.21;56.71;;
66458;Laerm;56835;52.198;4.826;2023-03-15T00:30:20;55.26;53.14;56.47;;
66458;Laerm;56835;52.198;4.826;2023-03-15T00:30:30;55.27;53.58;56.98;;
66458;Laerm;56835;52.198;4.826;2023-03-15T00:30:41;55.22;53.43;57.28;;
66458;Laerm;56835;52.198;4.826;2023-03-15T00:31:08;55.26;53.54;56.94;;
66458;Laerm;56835;52.198;4.826;2023-03-15T00:31:22;55.23;52.91;56.80;;
66458;Laerm;56835;52.198;4.826;2023-03-15T00:31:33;55.28;53.07;56.61;;
66458;Laerm;56835;52.198;4.826;2023-03-15T00:31:44;55.31;53.11;56.96;;
66458;Laerm;56835;52.198;4.826;2023-03-15T00:31:55;55.27;53.18;56.67;;
66458;Laerm;56835;52.198;4.826;2023-03-15T00:32:05;55.22;53.45;56.60;;
66458;Laerm;56835;52.198;4.826;2023-03-15T00:32:15;55.22;52.74;57.09;;
66458;Laerm;56835;52.198;4.826;2023-03-15T00:32:25;55.29;53.30;57.01;;
66458;Laerm;56835;52.198;4.826;2023-03-15T00:32:36;55.16;52.85;56.81;;
66458;Laerm;56835;52.198;4.826;2023-03-15T00:32:46;55.22;53.35;56.63;;
66458;Laerm;56835;52.198;4.826;2023-03-15T00:32:56;55.21;52.99;56.89;;
66458;Laerm;56835;52.198;4.826;2023-03-15T00:33:07;55.18;53.07;56.45;;
66458;Laerm;56835;52.198;4.826;2023-03-15T00:33:17;55.14;53.02;56.53;;
66458;Laerm;56835;52.198;4.826;2023-03-15T00:33:28;55.24;53.11;56.82;;
66458;Laerm;56835;52.198;4.826;2023-03-15T00:33:38;55.22;53.13;56.78;;
66458;Laerm;56835;52.198;4.826;2023-03-15T00:33:48;55.23;53.16;56.82;;
66458;Laerm;56835;52.198;4.826;2023-03-15T00:34:02;55.25;53.16;56.94;;
66458;Laerm;56835;52.198;4.826;2023-03-15T00:34:12;55.26;53.01;56.78;;
66458;Laerm;56835;52.198;4.826;2023-03-15T00:34:23;55.34;52.99;56.86;;
66458;Laerm;56835;52.198;4.826;2023-03-15T00:34:36;55.30;53.15;56.61;;
66458;Laerm;56835;52.198;4.826;2023-03-15T00:34:46;55.33;53.70;57.02;;
66458;Laerm;56835;52.198;4.826;2023-03-15T00:34:58;55.39;53.19;57.17;;
66458;Laerm;56835;52.198;4.826;2023-03-15T00:35:09;55.30;52.92;56.64;;
66458;Laerm;56835;52.198;4.826;2023-03-15T00:35:20;55.27;53.40;56.63;;
66458;Laerm;56835;52.198;4.826;2023-03-15T00:35:31;55.22;53.51;57.27;;
66458;Laerm;56835;52.198;4.826;2023-03-15T00:35:43;55.20;53.12;56.56;;
66458;Laerm;56835;52.198;4.826;2023-03-15T00:35:54;55.22;53.54;56.77;;
66458;Laerm;56835;52.198;4.826;2023-03-15T00:36:04;55.19;53.23;56.42;;
66458;Laerm;56835;52.198;4.826;2023-03-15T00:36:15;55.20;52.80;56.83;;
66458;Laerm;56835;52.198;4.826;2023-03-15T00:36:25;55.24;53.08;57.07;;
66458;Laerm;56835;52.198;4.826;2023-03-15T00:36:35;55.14;53.14;56.56;;
66458;Laerm;56835;52.198;4.826;2023-03-15T00:36:46;55.19;53.73;56.60;;
66458;Laerm;56835;52.198;4.826;2023-03-15T00:36:56;55.18;52.99;56.74;;
66458;Laerm;56835;52.198;4.826;2023-03-15T00:37:07;55.28;53.56;56.67;;
66458;Laerm;56835;52.198;4.826;2023-03-15T00:37:17;55.21;52.92;56.68;;
66458;Laerm;56835;52.198;4.826;2023-03-15T00:37:29;55.14;53.28;56.86;;
66458;Laerm;56835;52.198;4.826;2023-03-15T00:37:40;55.19;52.95;56.63;;
66458;Laerm;56835;52.198;4.826;2023-03-15T00:37:54;55.19;53.49;56.78;;
66458;Laerm;56835;52.198;4.826;2023-03-15T00:38:04;55.25;53.32;56.80;;
66458;Laerm;56835;52.198;4.826;2023-03-15T00:38:14;55.22;52.46;56.35;;
66458;Laerm;56835;52.198;4.826;2023-03-15T00:38:25;55.12;53.48;56.53;;
66458;Laerm;56835;52.198;4.826;2023-03-15T00:38:36;55.15;53.37;56.45;;
66458;Laerm;56835;52.198;4.826;2023-03-15T00:38:46;55.17;52.89;56.51;;
66458;Laerm;56835;52.198;4.826;2023-03-15T00:38:56;55.19;53.59;56.55;;
66458;Laerm;56835;52.198;4.826;2023-03-15T00:39:07;55.13;52.01;56.50;;
66458;Laerm;56835;52.198;4.826;2023-03-15T00:39:17;55.16;53.54;56.68;;
66458;Laerm;56835;52.198;4.826;2023-03-15T00:39:27;55.17;53.37;56.65;;
66458;Laerm;56835;52.198;4.826;2023-03-15T00:39:38;55.14;53.14;56.80;;
66458;Laerm;56835;52.198;4.826;2023-03-15T00:39:50;55.20;52.96;56.60;;
66458;Laerm;56835;52.198;4.826;2023-03-15T00:40:00;55.14;53.35;56.75;;
66458;Laerm;56835;52.198;4.826;2023-03-15T00:40:11;55.17;53.57;56.69;;
66458;Laerm;56835;52.198;4.826;2023-03-15T00:40:22;55.17;53.54;56.74;;
66458;Laerm;56835;52.198;4.826;2023-03-15T00:40:32;55.13;52.66;56.85;;
66458;Laerm;56835;52.198;4.826;2023-03-15T00:40:43;55.13;53.31;56.99;;
66458;Laerm;56835;52.198;4.826;2023-03-15T00:40:53;55.13;53.34;56.59;;
66458;Laerm;56835;52.198;4.826;2023-03-15T00:41:06;55.12;52.96;56.70;;
66458;Laerm;56835;52.198;4.826;2023-03-15T00:41:17;55.10;53.18;56.84;;
66458;Laerm;56835;52.198;4.826;2023-03-15T00:41:28;55.08;53.24;56.35;;
66458;Laerm;56835;52.198;4.826;2023-03-15T00:41:38;55.22;53.46;56.93;;
66458;Laerm;56835;52.198;4.826;2023-03-15T00:41:48;55.13;53.57;56.59;;
66458;Laerm;56835;52.198;4.826;2023-03-15T00:41:59;55.17;53.10;56.83;;
66458;Laerm;56835;52.198;4.826;2023-03-15T00:42:09;55.30;53.21;57.15;;
66458;Laerm;56835;52.198;4.826;2023-03-15T00:42:20;55.21;53.60;56.74;;
66458;Laerm;56835;52.198;4.826;2023-03-15T00:42:30;55.25;53.13;56.93;;
66458;Laerm;56835;52.198;4.826;2023-03-15T00:42:41;55.26;53.47;56.52;;
66458;Laerm;56835;52.198;4.826;2023-03-15T00:42:51;55.25;53.07;56.74;;
66458;Laerm;56835;52.198;4.826;2023-03-15T00:43:01;55.27;53.67;56.79;;
66458;Laerm;56835;52.198;4.826;2023-03-15T00:43:12;55.26;52.97;57.20;;
66458;Laerm;56835;52.198;4.826;2023-03-15T00:43:26;55.25;53.17;56.87;;
66458;Laerm;56835;52.198;4.826;2023-03-15T00:43:37;55.27;53.61;57.18;;
66458;Laerm;56835;52.198;4.826;2023-03-15T00:43:47;55.25;53.73;56.93;;
66458;Laerm;56835;52.198;4.826;2023-03-15T00:43:58;55.17;53.14;56.77;;
66458;Laerm;56835;52.198;4.826;2023-03-15T00:44:08;55.14;53.19;56.66;;
66458;Laerm;56835;52.198;4.826;2023-03-15T00:44:18;55.13;53.56;56.91;;
66458;Laerm;56835;52.198;4.826;2023-03-15T00:44:29;55.14;52.89;56.50;;
66458;Laerm;56835;52.198;4.826;2023-03-15T00:44:42;55.16;53.08;56.42;;
66458;Laerm;56835;52.198;4.826;2023-03-15T00:44:53;55.22;53.37;56.78;;
66458;Laerm;56835;52.198;4.826;2023-03-15T00:45:04;55.22;53.66;56.87;;
66458;Laerm;56835;52.198;4.826;2023-03-15T00:45:18;55.29;53.09;56.64;;
66458;Laerm;56835;52.198;4.826;2023-03-15T00:45:29;55.26;52.99;56.98;;
66458;Laerm;56835;52.198;4.826;2023-03-15T00:45:39;55.16;53.47;56.68;;
66458;Laerm;56835;52.198;4.826;2023-03-15T00:45:49;55.08;52.46;56.86;;
66458;Laerm;56835;52.198;4.826;2023-03-15T00:46:00;55.07;52.93;56.62;;
66458;Laerm;56835;52.198;4.826;2023-03-15T00:46:11;54.98;53.04;56.37;;
66458;Laerm;56835;52.198;4.826;2023-03-15T00:46:21;54.96;52.79;56.47;;
66458;Laerm;56835;52.198;4.826;2023-03-15T00:46:32;55.15;53.69;56.71;;
66458;Laerm;56835;52.198;4.826;2023-03-15T00:46:42;55.21;52.85;56.65;;
66458;Laerm;56835;52.198;4.826;2023-03-15T00:46:52;55.19;53.39;56.73;;
66458;Laerm;56835;52.198;4.826;2023-03-15T00:47:02;55.17;52.93;56.64;;
66458;Laerm;56835;52.198;4.826;2023-03-15T00:47:13;55.16;53.45;56.65;;
66458;Laerm;56835;52.198;4.826;2023-03-15T00:47:24;55.21;53.34;56.96;;
66458;Laerm;56835;52.198;4.826;2023-03-15T00:47:34;55.16;53.50;56.77;;
66458;Laerm;56835;52.198;4.826;2023-03-15T00:47:47;55.20;53.11;56.87;;
66458;Laerm;56835;52.198;4.826;2023-03-15T00:47:57;55.20;53.32;56.54;;
66458;Laerm;56835;52.198;4.826;2023-03-15T00:48:07;55.22;53.29;56.78;;
66458;Laerm;56835;52.198;4.826;2023-03-15T00:48:18;55.19;52.66;56.89;;
66458;Laerm;56835;52.198;4.826;2023-03-15T00:48:28;55.13;53.42;56.45;;
66458;Laerm;56835;52.198;4.826;2023-03-15T00:48:38;55.14;52.94;56.50;;
66458;Laerm;56835;52.198;4.826;2023-03-15T00:48:49;55.16;53.37;56.88;;
66458;Laerm;56835;52.198;4.826;2023-03-15T00:48:59;55.18;53.48;56.56;;
66458;Laerm;56835;52.198;4.826;2023-03-15T00:49:10;55.20;53.45;56.72;;
66458;Laerm;56835;52.198;4.826;2023-03-15T00:49:20;55.16;53.40;56.40;;
66458;Laerm;56835;52.198;4.826;2023-03-15T00:49:31;55.21;53.01;56.61;;
66458;Laerm;56835;52.198;4.826;2023-03-15T00:49:41;55.16;53.00;56.50;;
66458;Laerm;56835;52.198;4.826;2023-03-15T00:49:52;55.17;53.17;56.67;;
66458;Laerm;56835;52.198;4.826;2023-03-15T00:50:02;55.17;53.33;56.68;;
66458;Laerm;56835;52.198;4.826;2023-03-15T00:50:12;55.17;52.95;56.80;;
66458;Laerm;56835;52.198;4.826;2023-03-15T00:50:23;55.18;53.76;57.08;;
66458;Laerm;56835;52.198;4.826;2023-03-15T00:50:33;55.27;53.33;56.76;;
66458;Laerm;56835;52.198;4.826;2023-03-15T00:50:43;55.33;53.58;56.74;;
66458;Laerm;56835;52.198;4.826;2023-03-15T00:51:04;55.32;53.84;57.11;;
66458;Laerm;56835;52.198;4.826;2023-03-15T00:51:16;55.29;53.39;56.81;;
66458;Laerm;56835;52.198;4.826;2023-03-15T00:51:27;55.21;53.66;56.95;;
66458;Laerm;56835;52.198;4.826;2023-03-15T00:51:38;55.21;53.14;56.56;;
66458;Laerm;56835;52.198;4.826;2023-03-15T00:51:49;55.18;53.46;56.65;;
66458;Laerm;56835;52.198;4.826;2023-03-15T00:51:59;55.22;53.54;56.82;;
66458;Laerm;56835;52.198;4.826;2023-03-15T00:52:09;55.21;53.47;56.43;;
66458;Laerm;56835;52.198;4.826;2023-03-15T00:52:21;55.19;53.27;56.57;;
66458;Laerm;56835;52.198;4.826;2023-03-15T00:52:35;55.22;53.41;56.66;;
66458;Laerm;56835;52.198;4.826;2023-03-15T00:52:45;55.19;53.27;56.58;;
66458;Laerm;56835;52.198;4.826;2023-03-15T00:52:55;55.21;53.30;56.36;;
66458;Laerm;56835;52.198;4.826;2023-03-15T00:53:06;55.23;53.13;56.68;;
66458;Laerm;56835;52.198;4.826;2023-03-15T00:53:16;55.17;53.17;56.61;;
66458;Laerm;56835;52.198;4.826;2023-03-15T00:53:26;55.15;52.98;56.56;;
66458;Laerm;56835;52.198;4.826;2023-03-15T00:53:37;55.20;53.43;56.70;;
66458;Laerm;56835;52.198;4.826;2023-03-15T00:53:49;55.25;53.53;56.94;;
66458;Laerm;56835;52.198;4.826;2023-03-15T00:54:00;55.30;52.90;56.88;;
66458;Laerm;56835;52.198;4.826;2023-03-15T00:54:10;55.33;53.31;56.76;;
66458;Laerm;56835;52.198;4.826;2023-03-15T00:54:22;55.33;53.57;57.00;;
66458;Laerm;56835;52.198;4.826;2023-03-15T00:54:33;55.28;53.48;56.81;;
66458;Laerm;56835;52.198;4.826;2023-03-15T00:54:43;55.23;53.02;56.92;;
66458;Laerm;56835;52.198;4.826;2023-03-15T00:54:54;55.17;52.88;56.94;;
66458;Laerm;56835;52.198;4.826;2023-03-15T00:55:04;55.25;53.43;56.45;;
66458;Laerm;56835;52.198;4.826;2023-03-15T00:55:16;55.17;53.22;56.35;;
66458;Laerm;56835;52.198;4.826;2023-03-15T00:55:27;55.20;53.52;56.72;;
66458;Laerm;56835;52.198;4.826;2023-03-15T00:55:38;55.15;53.51;56.65;;
66458;Laerm;56835;52.198;4.826;2023-03-15T00:55:48;55.13;53.16;56.45;;
66458;Laerm;56835;52.198;4.826;2023-03-15T00:56:02;55.19;53.03;56.67;;
66458;Laerm;56835;52.198;4.826;2023-03-15T00:56:13;55.16;53.20;56.45;;
66458;Laerm;56835;52.198;4.826;2023-03-15T00:56:25;55.11;53.34;56.58;;
66458;Laerm;56835;52.198;4.826;2023-03-15T00:56:35;55.13;53.28;56.34;;
66458;Laerm;56835;52.198;4.826;2023-03-15T00:56:46;55.22;52.70;56.69;;
66458;Laerm;56835;52.198;4.826;2023-03-15T00:56:56;55.19;52.56;56.63;;
66458;Laerm;56835;52.198;4.826;2023-03-15T00:57:06;55.18;53.43;56.66;;
66458;Laerm;56835;52.198;4.826;2023-03-15T00:57:16;55.28;53.03;56.75;;
66458;Laerm;56835;52.198;4.826;2023-03-15T00:57:27;55.29;53.04;56.82;;
66458;Laerm;56835;52.198;4.826;2023-03-15T00:57:37;55.23;53.38;56.76;;
66458;Laerm;56835;52.198;4.826;2023-03-15T00:57:49;55.16;52.77;56.91;;
66458;Laerm;56835;52.198;4.826;2023-03-15T00:57:59;55.14;53.45;56.65;;
66458;Laerm;56835;52.198;4.826;2023-03-15T00:58:09;55.20;53.33;56.74;;
66458;Laerm;56835;52.198;4.826;2023-03-15T00:58:19;55.17;53.56;56.50;;
66458;Laerm;56835;52.198;4.826;2023-03-15T00:58:30;55.20;52.75;56.71;;
66458;Laerm;56835;52.198;4.826;2023-03-15T00:58:40;55.25;53.49;56.54;;
66458;Laerm;56835;52.198;4.826;2023-03-15T00:58:51;55.22;53.12;56.75;;
66458;Laerm;56835;52.198;4.826;2023-03-15T00:59:04;55.18;52.23;56.96;;
66458;Laerm;56835;52.198;4.826;2023-03-15T00:59:14;55.20;52.95;56.39;;
66458;Laerm;56835;52.198;4.826;2023-03-15T00:59:24;55.32;52.66;57.05;;
66458;Laerm;56835;52.198;4.826;2023-03-15T00:59:35;55.28;52.29;56.71;;
66458;Laerm;56835;52.198;4.826;2023-03-15T00:59:45;55.34;53.50;56.69;;
66458;Laerm;56835;52.198;4.826;2023-03-15T00:59:55;55.30;53.47;56.60;;
66458;Laerm;56835;52.198;4.826;2023-03-15T01:00:17;55.30;53.61;56.94;;
66458;Laerm;56835;52.198;4.826;2023-03-15T01:00:29;55.17;52.93;56.74;;
66458;Laerm;56835;52.198;4.826;2023-03-15T01:00:39;55.16;53.36;56.59;;
66458;Laerm;56835;52.198;4.826;2023-03-15T01:00:50;55.16;53.27;56.30;;
66458;Laerm;56835;52.198;4.826;2023-03-15T01:01:04;55.23;53.38;56.85;;